Figueras, Spain
Current Conditions -  °F | °C
As of 12:30 AM on Saturday 20 Dec 2014 (Local Time) from LEGE Reporting Station
Broken Clouds Broken Clouds  
Wind Chill: 52°   Ceiling: 2800
Heat Index: 52°   Visibility: 6mi
Dew Point: 46°   Wind: 1mph
Humidity: 82%   Direction: 280°W
Pressure: 30.39"   Gusts: NA
Location:  42.27°N, 2.96°E
Report Text: LEGE 192330Z 28001KT 9000 BKN028 11/08 Q1029
Loading
Personal Weather Stations






























Interactive Weather Map New forecast layout! Learn more

10-Day Weather Forecast

Advertisements
Track Severe Weather on mobile